createdAt,value
2018-11-06T00:00:55.045Z,0.00
2018-11-06T00:01:55.079Z,0.00
2018-11-06T00:02:55.111Z,0.00
2018-11-06T00:03:55.146Z,0.00
2018-11-06T00:04:55.183Z,0.00
2018-11-06T00:05:55.216Z,0.00
2018-11-06T00:06:55.252Z,0.00
2018-11-06T00:07:55.291Z,0.00
2018-11-06T00:08:55.327Z,0.00
2018-11-06T00:09:55.357Z,0.00
2018-11-06T00:10:55.392Z,0.00
2018-11-06T00:11:55.427Z,0.00
2018-11-06T00:12:55.460Z,0.00
2018-11-06T00:13:55.500Z,0.00
2018-11-06T00:14:55.531Z,0.00
2018-11-06T00:15:55.567Z,0.00
2018-11-06T00:16:55.602Z,0.00
2018-11-06T00:17:55.637Z,0.00
2018-11-06T00:18:55.671Z,0.00
2018-11-06T00:19:55.705Z,0.00
2018-11-06T00:20:55.742Z,0.00
2018-11-06T00:21:55.778Z,0.00
2018-11-06T00:22:55.812Z,0.00
2018-11-06T00:23:55.848Z,0.00
2018-11-06T00:24:55.883Z,0.00
2018-11-06T00:25:55.917Z,0.00
2018-11-06T00:26:55.956Z,0.00
2018-11-06T00:27:55.987Z,0.00
2018-11-06T00:28:56.021Z,0.00
2018-11-06T00:29:56.056Z,0.00
2018-11-06T00:30:56.091Z,0.00
2018-11-06T00:31:56.127Z,0.00
2018-11-06T00:32:56.162Z,0.00
2018-11-06T00:33:56.240Z,0.00
2018-11-06T00:34:56.232Z,0.00
2018-11-06T00:35:56.266Z,0.00
2018-11-06T00:36:56.300Z,0.00
2018-11-06T00:37:56.337Z,0.00
2018-11-06T00:38:56.370Z,0.00
2018-11-06T00:39:56.405Z,0.00
2018-11-06T00:40:56.444Z,0.00
2018-11-06T00:41:56.475Z,0.00
2018-11-06T00:42:56.511Z,0.00
2018-11-06T00:43:56.545Z,0.00
2018-11-06T00:44:56.583Z,0.00
2018-11-06T00:45:56.616Z,0.00
2018-11-06T00:46:56.649Z,0.00
2018-11-06T00:47:56.685Z,0.00
2018-11-06T00:48:56.719Z,0.00
2018-11-06T00:49:56.755Z,0.00
2018-11-06T00:50:56.788Z,0.00
2018-11-06T00:51:56.825Z,0.00
2018-11-06T00:52:56.862Z,0.00
2018-11-06T00:53:56.897Z,0.00
2018-11-06T00:54:56.929Z,0.00
2018-11-06T00:55:56.965Z,0.00
2018-11-06T00:56:57.003Z,0.00
2018-11-06T00:57:57.035Z,0.00
2018-11-06T00:58:57.228Z,0.00
2018-11-06T00:59:57.103Z,0.00
2018-11-06T01:00:57.137Z,0.00
2018-11-06T01:01:57.173Z,0.00
2018-11-06T01:02:57.207Z,0.00
2018-11-06T01:03:57.242Z,0.00
2018-11-06T01:04:57.277Z,0.00
2018-11-06T01:05:57.320Z,0.00
2018-11-06T01:06:57.350Z,0.00
2018-11-06T01:07:57.387Z,0.00
2018-11-06T01:08:57.417Z,0.00
2018-11-06T01:09:57.452Z,0.00
2018-11-06T01:10:57.488Z,0.00
2018-11-06T01:11:57.521Z,0.00
2018-11-06T01:12:57.565Z,0.00
2018-11-06T01:13:57.590Z,0.00
2018-11-06T01:14:57.625Z,0.00
2018-11-06T01:15:57.659Z,0.00
2018-11-06T01:16:57.695Z,0.00
2018-11-06T01:17:57.729Z,0.00
2018-11-06T01:18:57.764Z,0.00
2018-11-06T01:19:57.798Z,0.00
2018-11-06T01:20:57.879Z,0.00
2018-11-06T01:21:57.868Z,0.00
2018-11-06T01:22:57.902Z,0.00
2018-11-06T01:23:57.942Z,0.00
2018-11-06T01:24:57.973Z,0.00
2018-11-06T01:25:58.009Z,0.00
2018-11-06T01:26:58.041Z,0.00
2018-11-06T01:27:58.077Z,0.00
2018-11-06T01:28:58.111Z,0.00
2018-11-06T01:29:58.148Z,0.00
2018-11-06T01:30:58.189Z,0.00
2018-11-06T01:31:58.215Z,0.00
2018-11-06T01:32:58.250Z,0.00
2018-11-06T01:33:58.288Z,0.00
2018-11-06T01:34:58.320Z,0.00
2018-11-06T01:35:58.354Z,0.00
2018-11-06T01:36:58.388Z,0.00
2018-11-06T01:37:58.424Z,0.00
2018-11-06T01:38:58.458Z,0.00
2018-11-06T01:39:58.498Z,0.00
2018-11-06T01:40:58.528Z,0.00
2018-11-06T01:41:58.563Z,0.00
2018-11-06T01:42:58.597Z,0.00
2018-11-06T01:43:58.633Z,0.00
2018-11-06T01:44:58.667Z,0.00
2018-11-06T01:45:58.709Z,0.00
2018-11-06T01:46:58.736Z,0.00
2018-11-06T01:47:58.772Z,0.00
2018-11-06T01:48:58.806Z,0.00
2018-11-06T01:49:58.843Z,0.00
2018-11-06T01:50:58.877Z,0.00
2018-11-06T01:51:58.910Z,0.00
2018-11-06T01:52:58.946Z,0.00
2018-11-06T01:53:58.980Z,0.00
2018-11-06T01:54:59.015Z,0.00
2018-11-06T01:55:59.050Z,0.00
2018-11-06T01:56:59.090Z,0.00
2018-11-06T01:57:59.119Z,0.00
2018-11-06T01:58:59.156Z,0.00
2018-11-06T01:59:59.190Z,0.00
2018-11-06T02:00:59.223Z,0.00
2018-11-06T02:01:59.259Z,0.00
2018-11-06T02:02:59.293Z,0.00
2018-11-06T02:03:59.330Z,0.00
2018-11-06T02:04:59.363Z,0.00
2018-11-06T02:05:59.401Z,0.00
2018-11-06T02:06:59.437Z,0.00
2018-11-06T02:07:59.467Z,0.00
2018-11-06T02:08:59.501Z,0.00
2018-11-06T02:09:59.537Z,0.00
2018-11-06T02:10:59.571Z,0.00
2018-11-06T02:11:59.606Z,0.00
2018-11-06T02:12:59.652Z,0.00
2018-11-06T02:13:59.675Z,0.00
2018-11-06T02:14:59.709Z,0.00
2018-11-06T02:15:59.746Z,0.00
2018-11-06T02:16:59.779Z,0.00
2018-11-06T02:17:59.816Z,0.00
2018-11-06T02:18:59.851Z,0.00
2018-11-06T02:19:59.883Z,0.00
2018-11-06T02:20:59.918Z,0.00
2018-11-06T02:21:59.954Z,0.00
2018-11-06T02:22:59.988Z,0.00
2018-11-06T02:24:00.023Z,0.00
2018-11-06T02:25:00.059Z,0.00
2018-11-06T02:26:00.092Z,0.00
2018-11-06T02:27:00.126Z,0.00
2018-11-06T02:28:00.162Z,0.00
2018-11-06T02:29:00.197Z,0.00
2018-11-06T02:30:00.231Z,0.00
2018-11-06T02:31:00.264Z,0.00
2018-11-06T02:32:00.301Z,0.00
2018-11-06T02:33:00.335Z,0.00
2018-11-06T02:34:00.370Z,0.00
2018-11-06T02:35:00.406Z,0.00
2018-11-06T02:36:00.438Z,0.00
2018-11-06T02:37:00.480Z,0.00
2018-11-06T02:38:00.508Z,0.00
2018-11-06T02:39:00.544Z,0.00
2018-11-06T02:40:00.577Z,0.00
2018-11-06T02:41:00.611Z,0.00
2018-11-06T02:42:00.653Z,0.00
2018-11-06T02:43:00.681Z,0.00
2018-11-06T02:44:00.716Z,0.00
2018-11-06T02:45:00.749Z,0.00
2018-11-06T02:46:00.784Z,0.00
2018-11-06T02:47:00.818Z,0.00
2018-11-06T02:48:00.852Z,0.00
2018-11-06T02:49:00.889Z,0.00
2018-11-06T02:50:00.923Z,0.00
2018-11-06T02:51:00.957Z,0.00
2018-11-06T02:52:00.991Z,0.00
2018-11-06T02:53:01.028Z,0.00
2018-11-06T02:54:01.061Z,0.00
2018-11-06T02:55:01.096Z,0.00
2018-11-06T02:56:01.208Z,0.00
2018-11-06T02:57:01.164Z,0.00
2018-11-06T02:58:01.200Z,0.00
2018-11-06T02:59:01.232Z,0.00
2018-11-06T03:00:01.267Z,0.00
2018-11-06T03:01:01.303Z,0.00
2018-11-06T03:02:01.336Z,0.00
2018-11-06T03:03:01.373Z,0.00
2018-11-06T03:04:01.407Z,0.00
2018-11-06T03:05:01.441Z,0.00
2018-11-06T03:06:01.475Z,0.00
2018-11-06T03:07:01.513Z,0.00
2018-11-06T03:08:01.543Z,0.00
2018-11-06T03:09:01.579Z,0.00
2018-11-06T03:10:01.650Z,0.00
2018-11-06T03:11:01.649Z,0.00
2018-11-06T03:12:01.685Z,0.00
2018-11-06T03:13:01.717Z,0.00
2018-11-06T03:14:01.754Z,0.00
2018-11-06T03:15:01.785Z,0.00
2018-11-06T03:16:01.822Z,0.00
2018-11-06T03:17:02.041Z,0.00
2018-11-06T03:18:01.889Z,0.00
2018-11-06T03:19:01.930Z,0.00
2018-11-06T03:20:01.961Z,0.00
2018-11-06T03:21:01.996Z,0.00
2018-11-06T03:22:02.030Z,0.00
2018-11-06T03:23:02.063Z,0.00
2018-11-06T03:24:02.096Z,0.00
2018-11-06T03:25:02.131Z,0.00
2018-11-06T03:26:02.165Z,0.00
2018-11-06T03:27:02.276Z,0.00
2018-11-06T03:28:02.235Z,0.00
2018-11-06T03:29:02.269Z,0.00
2018-11-06T03:30:02.303Z,0.00
2018-11-06T03:31:02.358Z,0.00
2018-11-06T03:32:02.398Z,0.00
2018-11-06T03:33:02.407Z,0.00
2018-11-06T03:34:02.442Z,0.00
2018-11-06T03:35:02.478Z,0.00
2018-11-06T03:36:02.510Z,0.00
2018-11-06T03:37:02.552Z,0.00
2018-11-06T03:38:02.584Z,0.00
2018-11-06T03:39:02.615Z,0.00
2018-11-06T03:40:02.650Z,0.00
2018-11-06T03:41:02.683Z,0.00
2018-11-06T03:42:02.721Z,0.00
2018-11-06T03:43:02.752Z,0.00
2018-11-06T03:44:02.785Z,0.00
2018-11-06T03:45:02.820Z,0.00
2018-11-06T03:46:02.856Z,0.00
2018-11-06T03:47:02.888Z,0.00
2018-11-06T03:48:02.926Z,0.00
2018-11-06T03:49:02.959Z,0.00
2018-11-06T03:50:02.993Z,0.00
2018-11-06T03:51:03.029Z,0.00
2018-11-06T03:52:03.063Z,0.00
2018-11-06T03:53:03.096Z,0.00
2018-11-06T03:54:03.130Z,0.00
2018-11-06T03:55:03.166Z,0.00
2018-11-06T03:56:03.201Z,0.00
2018-11-06T03:57:03.235Z,0.00
2018-11-06T03:58:03.269Z,0.00
2018-11-06T03:59:03.306Z,0.00
2018-11-06T04:00:03.337Z,0.00
2018-11-06T04:01:03.372Z,0.00
2018-11-06T04:02:03.407Z,0.00
2018-11-06T04:03:03.440Z,0.00
2018-11-06T04:04:03.477Z,0.00
2018-11-06T04:05:03.510Z,0.00
2018-11-06T04:06:03.545Z,0.00
2018-11-06T04:07:03.584Z,0.00
2018-11-06T04:08:03.613Z,0.00
2018-11-06T04:09:03.647Z,0.00
2018-11-06T04:10:03.682Z,0.00
2018-11-06T04:11:03.719Z,0.00
2018-11-06T04:12:03.751Z,0.00
2018-11-06T04:13:03.785Z,0.00
2018-11-06T04:14:03.819Z,0.00
2018-11-06T04:15:03.853Z,0.00
2018-11-06T04:16:03.892Z,0.00
2018-11-06T04:17:03.931Z,0.00
2018-11-06T04:18:03.958Z,0.00
2018-11-06T04:19:03.991Z,0.00
2018-11-06T04:20:04.025Z,0.00
2018-11-06T04:21:04.060Z,0.00
2018-11-06T04:22:04.094Z,0.00
2018-11-06T04:23:04.132Z,0.00
2018-11-06T04:24:04.163Z,0.00
2018-11-06T04:25:04.197Z,0.00
2018-11-06T04:26:04.236Z,0.00
2018-11-06T04:27:04.266Z,0.00
2018-11-06T04:28:04.300Z,0.00
2018-11-06T04:29:04.335Z,0.00
2018-11-06T04:30:04.371Z,0.00
2018-11-06T04:31:04.414Z,0.00
2018-11-06T04:32:04.439Z,0.00
2018-11-06T04:33:04.472Z,0.00
2018-11-06T04:34:04.507Z,0.00
2018-11-06T04:35:04.541Z,0.00
2018-11-06T04:36:04.576Z,0.00
2018-11-06T04:37:04.614Z,0.00
2018-11-06T04:38:04.646Z,0.00
2018-11-06T04:39:04.679Z,0.00
2018-11-06T04:40:04.713Z,0.00
2018-11-06T04:41:04.747Z,0.00
2018-11-06T04:42:04.782Z,0.00
2018-11-06T04:43:04.815Z,0.00
2018-11-06T04:44:04.850Z,0.00
2018-11-06T04:45:04.885Z,0.00
2018-11-06T04:46:04.919Z,0.00
2018-11-06T04:47:04.952Z,0.00
2018-11-06T04:48:04.986Z,0.00
2018-11-06T04:49:05.023Z,0.00
2018-11-06T04:50:05.057Z,0.00
2018-11-06T04:51:05.091Z,0.00
2018-11-06T04:52:05.123Z,0.00
2018-11-06T04:53:05.158Z,0.00
2018-11-06T04:54:05.192Z,0.00
2018-11-06T04:55:05.227Z,0.00
2018-11-06T04:56:05.260Z,0.00
2018-11-06T04:57:05.295Z,0.00
2018-11-06T04:58:05.332Z,0.00
2018-11-06T04:59:05.364Z,0.00
2018-11-06T05:00:05.401Z,0.00
2018-11-06T05:01:05.435Z,0.00
2018-11-06T05:02:05.509Z,0.00
2018-11-06T05:03:05.517Z,0.00
2018-11-06T05:04:05.534Z,0.00
2018-11-06T05:05:05.569Z,0.00
2018-11-06T05:06:05.603Z,0.00
2018-11-06T05:07:05.638Z,0.00
2018-11-06T05:08:05.673Z,0.00
2018-11-06T05:09:05.705Z,0.00
2018-11-06T05:10:05.739Z,0.00
2018-11-06T05:11:05.773Z,0.00
2018-11-06T05:12:05.807Z,0.00
2018-11-06T05:13:05.842Z,0.00
2018-11-06T05:14:05.933Z,0.00
2018-11-06T05:15:05.910Z,0.00
2018-11-06T05:16:05.944Z,0.00
2018-11-06T05:17:05.978Z,0.00
2018-11-06T05:18:06.013Z,0.00
2018-11-06T05:19:06.046Z,0.00
2018-11-06T05:20:06.082Z,0.00
2018-11-06T05:21:06.116Z,0.00
2018-11-06T05:22:06.148Z,0.00
2018-11-06T05:23:06.183Z,0.00
2018-11-06T05:24:06.216Z,0.00
2018-11-06T05:25:06.252Z,0.00
2018-11-06T05:26:06.286Z,0.00
2018-11-06T05:27:06.318Z,0.00
2018-11-06T05:28:06.356Z,0.00
2018-11-06T05:29:06.387Z,0.00
2018-11-06T05:30:06.423Z,0.00
2018-11-06T05:31:06.455Z,0.00
2018-11-06T05:32:06.490Z,0.00
2018-11-06T05:33:06.524Z,0.00
2018-11-06T05:34:06.558Z,0.00
2018-11-06T05:35:06.594Z,0.00
2018-11-06T05:36:06.628Z,0.00
2018-11-06T05:37:06.660Z,0.00
2018-11-06T05:38:06.695Z,0.00
2018-11-06T05:39:06.860Z,0.00
2018-11-06T05:40:06.762Z,0.00
2018-11-06T05:41:06.799Z,4.00
2018-11-06T05:42:06.835Z,4.00
2018-11-06T05:43:06.867Z,0.00
2018-11-06T05:44:06.995Z,0.00
2018-11-06T05:45:06.932Z,0.00
2018-11-06T05:46:06.966Z,4.00
2018-11-06T05:47:07.000Z,4.00
2018-11-06T05:48:07.033Z,0.00
2018-11-06T05:49:07.072Z,4.00
2018-11-06T05:50:07.103Z,0.00
2018-11-06T05:51:07.136Z,4.00
2018-11-06T05:52:07.169Z,4.00
2018-11-06T05:53:07.251Z,4.00
2018-11-06T05:54:07.237Z,4.00
2018-11-06T05:55:07.274Z,8.00
2018-11-06T05:56:07.305Z,8.00
2018-11-06T05:57:07.339Z,8.00
2018-11-06T05:58:07.373Z,12.00
2018-11-06T05:59:07.408Z,12.00
2018-11-06T06:00:07.445Z,12.00
2018-11-06T06:01:07.474Z,16.00
2018-11-06T06:02:07.509Z,16.00
2018-11-06T06:03:07.543Z,16.00
2018-11-06T06:04:07.576Z,20.00
2018-11-06T06:05:07.610Z,20.00
2018-11-06T06:06:07.643Z,24.00
2018-11-06T06:07:07.733Z,24.00
2018-11-06T06:08:07.774Z,28.00
2018-11-06T06:09:07.747Z,32.00
2018-11-06T06:10:07.785Z,36.00
2018-11-06T06:11:07.890Z,36.00
2018-11-06T06:12:07.848Z,40.00
2018-11-06T06:13:07.885Z,44.00
2018-11-06T06:14:07.916Z,48.00
2018-11-06T06:15:07.949Z,52.00
2018-11-06T06:16:07.985Z,56.00
2018-11-06T06:17:08.060Z,60.00
2018-11-06T06:18:08.051Z,60.00
2018-11-06T06:19:08.087Z,64.00
2018-11-06T06:20:08.119Z,68.00
2018-11-06T06:21:08.153Z,72.00
2018-11-06T06:22:08.187Z,36.00
2018-11-06T06:23:08.223Z,56.00
2018-11-06T06:24:08.255Z,92.00
2018-11-06T06:25:08.291Z,96.00
2018-11-06T06:26:08.324Z,100.00
2018-11-06T06:27:08.356Z,104.00
2018-11-06T06:28:08.389Z,112.00
2018-11-06T06:29:08.425Z,120.00
2018-11-06T06:30:08.458Z,120.00
2018-11-06T06:31:08.493Z,128.00
2018-11-06T06:32:08.526Z,132.00
2018-11-06T06:33:08.560Z,136.00
2018-11-06T06:34:08.602Z,148.00
2018-11-06T06:35:08.708Z,152.00
2018-11-06T06:36:08.662Z,160.00
2018-11-06T06:37:08.695Z,164.00
2018-11-06T06:38:08.730Z,168.00
2018-11-06T06:39:08.763Z,180.00
2018-11-06T06:40:08.842Z,184.00
2018-11-06T06:41:08.839Z,188.00
2018-11-06T06:42:08.867Z,196.00
2018-11-06T06:43:08.900Z,200.00
2018-11-06T06:44:08.935Z,204.00
2018-11-06T06:45:08.968Z,208.00
2018-11-06T06:46:09.016Z,216.00
2018-11-06T06:47:09.035Z,224.00
2018-11-06T06:48:09.069Z,236.00
2018-11-06T06:49:09.108Z,240.00
2018-11-06T06:50:09.139Z,244.00
2018-11-06T06:51:09.173Z,256.00
2018-11-06T06:52:09.206Z,264.00
2018-11-06T06:53:09.241Z,272.00
2018-11-06T06:54:09.359Z,284.00
2018-11-06T06:55:09.376Z,288.00
2018-11-06T06:56:09.343Z,296.00
2018-11-06T06:57:09.378Z,304.00
2018-11-06T06:58:09.411Z,312.00
2018-11-06T06:59:09.444Z,320.00
2018-11-06T07:00:09.478Z,328.00
2018-11-06T07:01:09.512Z,332.00
2018-11-06T07:02:09.548Z,344.00
2018-11-06T07:03:09.581Z,348.00
2018-11-06T07:04:09.616Z,352.00
2018-11-06T07:05:09.650Z,364.00
2018-11-06T07:06:09.682Z,364.00
2018-11-06T07:07:09.719Z,376.00
2018-11-06T07:08:09.780Z,384.00
2018-11-06T07:09:09.790Z,392.00
2018-11-06T07:10:09.822Z,400.00
2018-11-06T07:11:09.852Z,404.00
2018-11-06T07:12:09.892Z,412.00
2018-11-06T07:13:10.096Z,420.00
2018-11-06T07:14:09.956Z,428.00
2018-11-06T07:15:09.989Z,436.00
2018-11-06T07:16:10.026Z,444.00
2018-11-06T07:17:10.060Z,448.00
2018-11-06T07:18:10.096Z,456.00
2018-11-06T07:19:10.134Z,464.00
2018-11-06T07:20:10.161Z,468.00
2018-11-06T07:21:10.196Z,476.00
2018-11-06T07:22:10.231Z,484.00
2018-11-06T07:23:10.263Z,496.00
2018-11-06T07:24:10.299Z,508.00
2018-11-06T07:25:10.332Z,516.00
2018-11-06T07:26:10.369Z,520.00
2018-11-06T07:27:10.400Z,532.00
2018-11-06T07:28:10.434Z,540.00
2018-11-06T07:29:10.468Z,540.00
2018-11-06T07:30:10.506Z,552.00
2018-11-06T07:31:10.536Z,560.00
2018-11-06T07:32:10.571Z,568.00
2018-11-06T07:33:10.606Z,576.00
2018-11-06T07:34:10.642Z,584.00
2018-11-06T07:35:10.726Z,596.00
2018-11-06T07:36:10.711Z,600.00
2018-11-06T07:37:10.744Z,612.00
2018-11-06T07:38:10.778Z,620.00
2018-11-06T07:39:10.817Z,628.00
2018-11-06T07:40:10.846Z,632.00
2018-11-06T07:41:10.959Z,644.00
2018-11-06T07:42:10.944Z,652.00
2018-11-06T07:43:10.948Z,660.00
2018-11-06T07:44:10.982Z,672.00
2018-11-06T07:45:11.018Z,680.00
2018-11-06T07:46:11.172Z,692.00
2018-11-06T07:47:11.085Z,696.00
2018-11-06T07:48:11.120Z,708.00
2018-11-06T07:49:11.156Z,720.00
2018-11-06T07:50:11.200Z,732.00
2018-11-06T07:51:11.223Z,740.00
2018-11-06T07:52:11.257Z,748.00
2018-11-06T07:53:11.292Z,756.00
2018-11-06T07:54:11.327Z,764.00
2018-11-06T07:55:11.361Z,772.00
2018-11-06T07:56:11.453Z,780.00
2018-11-06T07:57:11.433Z,792.00
2018-11-06T07:58:11.465Z,808.00
2018-11-06T07:59:11.499Z,808.00
2018-11-06T08:00:11.534Z,820.00
2018-11-06T08:01:11.566Z,828.00
2018-11-06T08:02:11.601Z,844.00
2018-11-06T08:03:11.638Z,856.00
2018-11-06T08:04:11.745Z,856.00
2018-11-06T08:05:11.704Z,872.00
2018-11-06T08:06:11.755Z,876.00
2018-11-06T08:07:11.799Z,888.00
2018-11-06T08:08:11.811Z,904.00
2018-11-06T08:09:11.843Z,908.00
2018-11-06T08:10:11.877Z,920.00
2018-11-06T08:11:11.910Z,928.00
2018-11-06T08:12:11.946Z,936.00
2018-11-06T08:13:11.980Z,952.00
2018-11-06T08:14:12.015Z,964.00
2018-11-06T08:15:12.144Z,980.00
2018-11-06T08:16:12.083Z,992.00
2018-11-06T08:17:12.117Z,992.00
2018-11-06T08:18:12.153Z,1004.00
2018-11-06T08:19:12.190Z,1024.00
2018-11-06T08:20:12.222Z,1040.00
2018-11-06T08:21:12.260Z,1060.00
2018-11-06T08:22:12.292Z,1076.00
2018-11-06T08:23:12.326Z,1096.00
2018-11-06T08:24:12.361Z,1116.00
2018-11-06T08:25:12.395Z,1140.00
2018-11-06T08:26:12.431Z,1176.00
2018-11-06T08:27:12.464Z,1204.00
2018-11-06T08:28:12.499Z,1224.00
2018-11-06T08:29:12.534Z,1252.00
2018-11-06T08:30:12.599Z,1292.00
2018-11-06T08:31:12.993Z,1320.00
2018-11-06T08:32:13.004Z,1364.00
2018-11-06T08:33:12.674Z,1404.00
2018-11-06T08:34:12.711Z,1440.00
2018-11-06T08:35:12.743Z,1476.00
2018-11-06T08:36:12.778Z,1528.00
2018-11-06T08:37:12.918Z,1584.00
2018-11-06T08:38:12.848Z,1616.00
2018-11-06T08:39:12.881Z,1664.00
2018-11-06T08:40:12.918Z,1716.00
2018-11-06T08:41:12.953Z,1756.00
2018-11-06T08:42:12.991Z,1804.00
2018-11-06T08:43:13.021Z,1824.00
2018-11-06T08:44:13.057Z,1864.00
2018-11-06T08:45:13.095Z,1884.00
2018-11-06T08:46:13.126Z,1904.00
2018-11-06T08:47:13.162Z,1892.00
2018-11-06T08:48:13.207Z,1940.00
2018-11-06T08:49:13.232Z,1964.00
2018-11-06T08:50:13.268Z,1996.00
2018-11-06T08:51:13.306Z,2032.00
2018-11-06T08:52:13.337Z,2076.00
2018-11-06T08:53:13.372Z,2116.00
2018-11-06T08:54:13.409Z,2168.00
2018-11-06T08:55:13.447Z,2176.00
2018-11-06T08:56:13.478Z,2224.00
2018-11-06T08:57:13.513Z,2264.00
2018-11-06T08:58:13.549Z,2300.00
2018-11-06T08:59:13.583Z,2312.00
2018-11-06T09:00:13.621Z,2376.00
2018-11-06T09:01:13.658Z,2408.00
2018-11-06T09:02:13.690Z,2448.00
2018-11-06T09:03:13.725Z,2464.00
2018-11-06T09:04:13.762Z,2484.00
2018-11-06T09:05:13.796Z,2488.00
2018-11-06T09:06:13.833Z,2504.00
2018-11-06T09:07:13.869Z,2500.00
2018-11-06T09:08:13.904Z,2532.00
2018-11-06T09:09:13.939Z,2548.00
2018-11-06T09:10:13.976Z,2628.00
2018-11-06T09:11:14.010Z,2572.00
2018-11-06T09:12:14.046Z,2596.00
2018-11-06T09:13:14.081Z,2608.00
2018-11-06T09:14:14.117Z,2620.00
2018-11-06T09:15:14.154Z,2604.00
2018-11-06T09:16:14.193Z,2652.00
2018-11-06T09:17:14.225Z,2664.00
2018-11-06T09:18:14.265Z,2700.00
2018-11-06T09:19:14.296Z,2828.00
2018-11-06T09:20:14.332Z,2928.00
2018-11-06T09:21:14.370Z,2996.00
2018-11-06T09:22:14.404Z,3072.00
2018-11-06T09:23:14.441Z,3184.00
2018-11-06T09:24:14.477Z,3376.00
2018-11-06T09:25:14.523Z,4240.00
2018-11-06T09:26:14.551Z,7668.00
2018-11-06T09:27:14.587Z,10996.00
2018-11-06T09:28:14.625Z,10984.00
2018-11-06T09:29:14.665Z,10516.00
2018-11-06T09:30:14.704Z,10640.00
2018-11-06T09:31:14.736Z,10896.00
2018-11-06T09:32:14.774Z,11348.00
2018-11-06T09:33:14.813Z,12760.00
2018-11-06T09:34:14.851Z,13084.00
2018-11-06T09:35:14.919Z,12796.00
2018-11-06T09:36:14.927Z,13160.00
2018-11-06T09:37:14.969Z,13760.00
2018-11-06T09:38:15.009Z,13920.00
2018-11-06T09:39:15.044Z,13632.00
2018-11-06T09:40:15.087Z,15072.00
2018-11-06T09:41:15.127Z,17568.00
2018-11-06T09:42:15.164Z,19200.00
2018-11-06T09:43:15.205Z,21056.00
2018-11-06T09:44:15.244Z,24160.00
2018-11-06T09:45:15.294Z,28544.00
2018-11-06T09:46:15.328Z,31744.00
2018-11-06T09:47:15.380Z,33248.00
2018-11-06T09:48:15.411Z,35328.00
2018-11-06T09:49:15.468Z,35840.00
2018-11-06T09:50:15.498Z,35584.00
2018-11-06T09:51:15.535Z,35936.00
2018-11-06T09:52:15.579Z,34816.00
2018-11-06T09:53:15.621Z,35296.00
2018-11-06T09:54:15.664Z,36160.00
2018-11-06T09:55:15.707Z,36384.00
2018-11-06T09:56:15.749Z,34752.00
2018-11-06T09:57:15.792Z,33856.00
2018-11-06T09:58:15.836Z,33536.00
2018-11-06T09:59:15.879Z,33952.00
2018-11-06T10:00:15.980Z,35232.00
2018-11-06T10:01:15.966Z,31680.00
2018-11-06T10:02:16.011Z,22592.00
2018-11-06T10:03:16.054Z,14944.00
2018-11-06T10:04:16.097Z,13296.00
2018-11-06T10:05:16.141Z,9664.00
2018-11-06T10:06:16.292Z,7048.00
2018-11-06T10:07:16.596Z,7052.00
2018-11-06T10:08:16.273Z,6796.00
2018-11-06T10:09:16.331Z,6472.00
2018-11-06T10:10:16.365Z,6660.00
2018-11-06T10:11:16.406Z,6768.00
2018-11-06T10:12:16.448Z,6876.00
2018-11-06T10:13:16.494Z,6592.00
2018-11-06T10:14:16.539Z,6612.00
2018-11-06T10:15:16.580Z,9204.00
2018-11-06T10:16:16.625Z,14208.00
2018-11-06T10:17:16.669Z,23136.00
2018-11-06T10:18:16.714Z,24960.00
2018-11-06T10:19:16.757Z,20512.00
2018-11-06T10:20:16.805Z,11352.00
2018-11-06T10:21:16.889Z,7352.00
2018-11-06T10:22:16.890Z,10676.00
2018-11-06T10:23:16.934Z,17760.00
2018-11-06T10:24:16.980Z,17856.00
2018-11-06T10:25:17.023Z,15328.00
2018-11-06T10:26:17.068Z,12540.00
2018-11-06T10:27:17.115Z,11472.00
2018-11-06T10:28:17.157Z,9884.00
2018-11-06T10:29:17.200Z,15712.00
2018-11-06T10:30:17.249Z,10328.00
2018-11-06T10:31:17.292Z,11424.00
2018-11-06T10:32:17.335Z,16896.00
2018-11-06T10:33:17.380Z,21952.00
2018-11-06T10:34:17.427Z,24704.00
2018-11-06T10:35:17.467Z,16512.00
2018-11-06T10:36:17.514Z,12120.00
2018-11-06T10:37:17.559Z,25088.00
2018-11-06T10:38:17.691Z,30496.00
2018-11-06T10:39:17.652Z,30560.00
2018-11-06T10:40:17.693Z,30624.00
2018-11-06T10:41:17.738Z,24480.00
2018-11-06T10:42:17.784Z,22976.00
2018-11-06T10:43:17.828Z,29312.00
2018-11-06T10:44:17.871Z,30400.00
2018-11-06T10:45:17.917Z,29440.00
2018-11-06T10:46:17.962Z,27040.00
2018-11-06T10:47:18.009Z,20512.00
2018-11-06T10:48:18.052Z,13092.00
2018-11-06T10:49:18.098Z,9864.00
2018-11-06T10:50:18.143Z,10492.00
2018-11-06T10:51:18.188Z,8880.00
2018-11-06T10:52:18.233Z,7300.00
2018-11-06T10:53:18.278Z,14176.00
2018-11-06T10:54:18.325Z,25664.00
2018-11-06T10:55:18.369Z,29056.00
2018-11-06T10:56:18.415Z,27264.00
2018-11-06T10:57:18.462Z,26656.00
2018-11-06T10:58:18.654Z,20512.00
2018-11-06T10:59:18.554Z,10064.00
2018-11-06T11:00:18.598Z,8456.00
2018-11-06T11:01:18.642Z,15584.00
2018-11-06T11:02:18.689Z,28704.00
2018-11-06T11:03:18.732Z,32640.00
2018-11-06T11:04:18.929Z,32960.00
2018-11-06T11:05:18.825Z,31840.00
2018-11-06T11:06:18.871Z,32352.00
2018-11-06T11:07:18.920Z,33056.00
2018-11-06T11:08:18.963Z,32992.00
2018-11-06T11:09:19.013Z,34368.00
2018-11-06T11:10:19.057Z,33760.00
2018-11-06T11:11:19.102Z,32384.00
2018-11-06T11:12:19.152Z,31360.00
2018-11-06T11:13:19.248Z,32192.00
2018-11-06T11:14:19.242Z,31712.00
2018-11-06T11:15:19.288Z,33056.00
2018-11-06T11:16:19.337Z,33824.00
2018-11-06T11:17:19.384Z,32096.00
2018-11-06T11:18:19.431Z,30624.00
2018-11-06T11:19:19.477Z,31040.00
2018-11-06T11:20:19.622Z,32064.00
2018-11-06T11:21:19.572Z,32416.00
2018-11-06T11:22:19.621Z,31904.00
2018-11-06T11:23:19.669Z,31712.00
2018-11-06T11:24:19.714Z,31008.00
2018-11-06T11:25:19.763Z,30656.00
2018-11-06T11:26:19.810Z,31776.00
2018-11-06T11:27:19.859Z,32992.00
2018-11-06T11:28:19.906Z,33248.00
2018-11-06T11:29:19.954Z,32128.00
2018-11-06T11:30:20.000Z,30912.00
2018-11-06T11:31:20.049Z,30528.00
2018-11-06T11:32:20.095Z,29824.00
2018-11-06T11:33:20.144Z,31232.00
2018-11-06T11:34:20.193Z,32288.00
2018-11-06T11:35:20.238Z,31904.00
2018-11-06T11:36:20.286Z,25664.00
2018-11-06T11:37:20.333Z,25248.00
2018-11-06T11:38:20.385Z,31936.00
2018-11-06T11:39:20.428Z,32768.00
2018-11-06T11:40:20.477Z,33088.00
2018-11-06T11:41:20.524Z,22496.00
2018-11-06T11:42:20.573Z,22656.00
2018-11-06T11:43:20.619Z,33824.00
2018-11-06T11:44:20.667Z,33472.00
2018-11-06T11:45:20.716Z,33248.00
2018-11-06T11:46:20.765Z,33280.00
2018-11-06T11:47:20.812Z,33984.00
2018-11-06T11:48:20.860Z,26880.00
2018-11-06T11:49:20.911Z,29184.00
2018-11-06T11:50:20.957Z,35200.00
2018-11-06T11:51:21.005Z,33696.00
2018-11-06T11:52:21.057Z,33664.00
2018-11-06T11:53:21.103Z,35680.00
2018-11-06T11:54:21.151Z,34304.00
2018-11-06T11:55:21.200Z,27648.00
2018-11-06T11:56:21.251Z,32736.00
2018-11-06T11:57:21.300Z,36832.00
2018-11-06T11:58:21.348Z,35392.00
2018-11-06T11:59:21.397Z,34720.00
2018-11-06T12:00:21.445Z,32288.00
2018-11-06T12:01:21.495Z,26080.00
2018-11-06T12:02:21.573Z,19072.00
2018-11-06T12:03:21.593Z,16032.00
2018-11-06T12:04:21.643Z,12884.00
2018-11-06T12:05:21.692Z,25792.00
2018-11-06T12:06:21.743Z,33888.00
2018-11-06T12:07:21.792Z,25184.00
2018-11-06T12:08:21.841Z,24800.00
2018-11-06T12:09:21.893Z,25664.00
2018-11-06T12:10:21.966Z,18816.00
2018-11-06T12:11:21.990Z,23008.00
2018-11-06T12:12:22.041Z,25920.00
2018-11-06T12:13:22.092Z,27808.00
2018-11-06T12:14:22.140Z,32896.00
2018-11-06T12:15:22.191Z,33280.00
2018-11-06T12:16:22.241Z,32832.00
2018-11-06T12:17:22.338Z,31744.00
2018-11-06T12:18:22.469Z,32320.00
2018-11-06T12:19:22.391Z,33504.00
2018-11-06T12:20:22.441Z,32320.00
2018-11-06T12:21:22.494Z,31392.00
2018-11-06T12:22:22.543Z,32608.00
2018-11-06T12:23:22.592Z,32704.00
2018-11-06T12:24:22.717Z,31808.00
2018-11-06T12:25:23.026Z,31072.00
2018-11-06T12:26:22.744Z,26304.00
2018-11-06T12:27:22.793Z,25568.00
2018-11-06T12:28:22.847Z,28672.00
2018-11-06T12:29:22.894Z,31456.00
2018-11-06T12:30:22.945Z,30208.00
2018-11-06T12:31:22.997Z,29856.00
2018-11-06T12:32:23.092Z,26016.00
2018-11-06T12:33:23.097Z,14976.00
2018-11-06T12:34:23.145Z,10644.00
2018-11-06T12:35:23.193Z,9716.00
2018-11-06T12:36:23.281Z,10372.00
2018-11-06T12:37:23.293Z,12060.00
2018-11-06T12:38:23.342Z,9916.00
2018-11-06T12:39:23.400Z,8736.00